Time;durP1;ratioP1;P1;durP2;ratioP2;P2;SDS_P1;SDS_P2;PMS_P1;PMS_P2;Temp;Humidity;BMP_temperature;BMP_pressure;BME280_temperature;BME280_humidity;BME280_pressure;Samples;Min_cycle;Max_cycle;Signal;HPM_P1;HPM_P2
2022/10/30 00:00:33;;;;;;;12.83;5.57;;;13.40;97.30;;;;;;4991577;28;20475;-85
2022/10/30 00:02:59;;;;;;;2.40;2.20;;;13.30;97.30;;;;;;4974589;28;20189;-85
2022/10/30 00:05:25;;;;;;;9.03;4.27;;;13.30;97.30;;;;;;4974745;28;20187;-85
2022/10/30 00:07:53;;;;;;;7.83;4.30;;;13.20;97.30;;;;;;4987602;28;20279;-85
2022/10/30 00:10:18;;;;;;;3.13;2.90;;;13.20;97.30;;;;;;4977299;28;20437;-85
2022/10/30 00:12:44;;;;;;;10.03;3.80;;;13.10;97.30;;;;;;4988359;28;20519;-84
2022/10/30 00:15:10;;;;;;;14.20;6.43;;;13.10;97.30;;;;;;4996316;28;20284;-85
2022/10/30 00:17:36;;;;;;;4.07;3.13;;;13.10;97.30;;;;;;4966602;28;20597;-85
2022/10/30 00:20:02;;;;;;;5.57;3.83;;;13.00;97.30;;;;;;4958745;28;20545;-85
2022/10/30 00:22:28;;;;;;;12.03;3.20;;;13.00;97.30;;;;;;4958589;28;20282;-85
2022/10/30 00:24:53;;;;;;;3.47;3.00;;;12.90;97.30;;;;;;4976114;28;20449;-86
2022/10/30 00:27:19;;;;;;;4.40;2.97;;;12.90;97.30;;;;;;4977820;28;20273;-85
2022/10/30 00:29:44;;;;;;;5.50;3.57;;;12.90;97.30;;;;;;4974219;28;20297;-85
2022/10/30 00:32:10;;;;;;;3.43;2.60;;;12.80;97.30;;;;;;4966254;28;20741;-84
2022/10/30 00:34:35;;;;;;;2.47;2.20;;;12.80;97.30;;;;;;4958382;28;20206;-85
2022/10/30 00:37:01;;;;;;;31.13;3.70;;;12.70;97.30;;;;;;4969331;28;20248;-86
2022/10/30 00:39:26;;;;;;;9.23;2.93;;;12.70;97.30;;;;;;4982023;28;20248;-85
2022/10/30 00:41:52;;;;;;;3.40;3.20;;;12.60;97.30;;;;;;4994978;28;20648;-85
2022/10/30 00:44:43;;;;;;;2.73;2.53;;;12.50;97.30;;;;;;4977155;28;20191;-84
2022/10/30 00:47:18;;;;;;;7.00;3.60;;;12.50;97.30;;;;;;4974456;28;20709;-85
2022/10/30 00:49:50;;;;;;;16.00;2.33;;;12.50;97.30;;;;;;4967555;28;20440;-85
2022/10/30 00:52:15;;;;;;;6.30;4.00;;;12.50;97.30;;;;;;4977137;28;20417;-85
2022/10/30 00:54:41;;;;;;;5.97;3.97;;;12.50;97.30;;;;;;4977108;28;20555;-85
2022/10/30 00:57:08;;;;;;;5.53;4.10;;;12.50;97.30;;;;;;4994777;28;20178;-85
2022/10/30 00:59:35;;;;;;;12.67;3.27;;;12.50;97.30;;;;;;4985591;28;20413;-85
2022/10/30 01:02:02;;;;;;;7.97;3.47;;;12.40;97.30;;;;;;4977102;28;20441;-86
2022/10/30 01:04:30;;;;;;;5.17;4.47;;;12.40;97.30;;;;;;5009940;23;20489;-89
2022/10/30 01:06:57;;;;;;;7.80;3.50;;;12.40;97.30;;;;;;5014346;28;20436;-88
2022/10/30 01:09:23;;;;;;;7.07;2.47;;;12.40;97.30;;;;;;5011987;28;20411;-88
2022/10/30 01:11:48;;;;;;;4.23;2.93;;;12.40;97.30;;;;;;5004333;28;20424;-88
2022/10/30 01:14:18;;;;;;;3.93;3.43;;;12.40;97.30;;;;;;5036379;28;20473;-88
2022/10/30 01:16:55;;;;;;;5.03;2.80;;;12.30;97.30;;;;;;5021951;28;20183;-88
2022/10/30 01:19:58;;;;;;;3.37;2.70;;;12.30;97.30;;;;;;5036613;28;20417;-88
2022/10/30 01:22:42;;;;;;;3.57;2.43;;;12.30;97.30;;;;;;5035842;28;20925;-89
2022/10/30 01:25:26;;;;;;;3.67;2.73;;;12.30;97.30;;;;;;5022606;28;20450;-88
2022/10/30 01:28:19;;;;;;;5.77;3.90;;;12.30;97.30;;;;;;5053776;28;20410;-88
2022/10/30 01:31:21;;;;;;;2.27;2.10;;;12.30;97.30;;;;;;5035528;28;20434;-88
2022/10/30 01:34:17;;;;;;;2.20;2.00;;;12.30;97.30;;;;;;5016371;28;20457;-87
2022/10/30 01:36:45;;;;;;;8.70;2.40;;;12.30;97.30;;;;;;5030526;28;20542;-88
2022/10/30 01:39:26;;;;;;;4.60;3.50;;;12.30;97.30;;;;;;5022452;28;20421;-88
2022/10/30 01:41:52;;;;;;;11.80;3.80;;;12.30;97.30;;;;;;5035535;28;20505;-89
2022/10/30 01:44:24;;;;;;;4.37;3.00;;;12.20;97.30;;;;;;5028492;28;20458;-88
2022/10/30 01:46:56;;;;;;;11.43;3.43;;;12.20;97.30;;;;;;5035154;28;20188;-87
2022/10/30 01:49:43;;;;;;;4.60;3.23;;;12.20;97.30;;;;;;5035461;28;20414;-88
2022/10/30 01:52:27;;;;;;;4.70;2.60;;;12.10;97.30;;;;;;5030452;28;20517;-89
2022/10/30 01:55:02;;;;;;;8.10;3.23;;;12.20;97.30;;;;;;5029140;28;20470;-88
2022/10/30 01:57:43;;;;;;;6.77;2.23;;;12.20;97.30;;;;;;5035529;28;20568;-88
2022/10/30 02:00:11;;;;;;;5.47;3.10;;;12.30;97.30;;;;;;5030694;28;20445;-89
2022/10/30 02:02:37;;;;;;;4.53;3.13;;;12.30;97.30;;;;;;5027119;28;20430;-86
2022/10/30 02:05:05;;;;;;;6.70;3.90;;;12.30;97.30;;;;;;5016911;28;20463;-88
2022/10/30 02:07:31;;;;;;;4.73;3.73;;;12.40;97.30;;;;;;5015244;28;20184;-88
2022/10/30 02:09:57;;;;;;;2.93;2.63;;;12.50;97.30;;;;;;5033354;28;20430;-88
2022/10/30 02:12:23;;;;;;;2.80;2.43;;;12.50;97.30;;;;;;5023709;28;20203;-88
2022/10/30 02:14:53;;;;;;;2.00;1.90;;;12.50;97.30;;;;;;5032353;28;20215;-88
2022/10/30 02:17:19;;;;;;;3.60;2.30;;;12.50;97.30;;;;;;5023825;28;20446;-88
2022/10/30 02:19:45;;;;;;;31.30;3.83;;;12.60;97.30;;;;;;5019670;28;20453;-88
2022/10/30 02:22:11;;;;;;;2.40;2.07;;;12.60;97.30;;;;;;5034512;28;20815;-87
2022/10/30 02:24:37;;;;;;;2.00;1.90;;;12.60;97.30;;;;;;5034225;28;20210;-88
2022/10/30 02:27:02;;;;;;;4.50;2.90;;;12.60;97.30;;;;;;5034382;28;20834;-88
2022/10/30 02:29:28;;;;;;;2.23;2.03;;;12.60;97.30;;;;;;5021618;28;20441;-89
2022/10/30 02:31:54;;;;;;;2.97;2.60;;;12.60;97.30;;;;;;5023537;28;20279;-88
2022/10/30 02:34:20;;;;;;;1.77;1.67;;;12.60;97.30;;;;;;5027822;28;20250;-88
2022/10/30 02:36:45;;;;;;;8.83;1.57;;;12.60;97.30;;;;;;5025922;28;20187;-88
2022/10/30 02:39:11;;;;;;;2.93;2.03;;;12.60;97.30;;;;;;5017158;28;20188;-89
2022/10/30 02:41:36;;;;;;;4.83;2.80;;;12.60;97.30;;;;;;5025830;28;20199;-88
2022/10/30 02:44:02;;;;;;;2.70;2.50;;;12.60;97.30;;;;;;5029682;28;20192;-88
2022/10/30 02:46:28;;;;;;;7.23;4.80;;;12.60;97.30;;;;;;5014806;28;20188;-88
2022/10/30 02:48:54;;;;;;;2.60;2.40;;;12.60;97.30;;;;;;5032125;28;20933;-88
2022/10/30 02:51:19;;;;;;;12.60;3.57;;;12.50;97.30;;;;;;5023211;28;20199;-88
2022/10/30 02:53:46;;;;;;;1.70;1.63;;;12.50;97.30;;;;;;5032234;28;20582;-88
2022/10/30 02:56:13;;;;;;;3.23;2.50;;;12.50;97.30;;;;;;5051963;28;20202;-87
2022/10/30 02:58:39;;;;;;;5.80;2.53;;;12.50;97.30;;;;;;5030681;28;20937;-88
2022/10/30 03:01:07;;;;;;;9.20;4.43;;;12.40;97.30;;;;;;5034142;28;20426;-88
2022/10/30 03:03:32;;;;;;;3.90;3.50;;;12.50;97.30;;;;;;5029093;28;20522;-88
2022/10/30 03:06:03;;;;;;;24.70;3.00;;;12.50;97.30;;;;;;5014446;28;20553;-88
2022/10/30 03:08:29;;;;;;;4.00;3.80;;;12.60;97.30;;;;;;5015128;28;20184;-88
2022/10/30 03:11:06;;;;;;;4.10;3.13;;;12.60;97.30;;;;;;5027076;28;20426;-88
2022/10/30 03:13:33;;;;;;;2.53;2.33;;;12.70;97.30;;;;;;5032746;28;20195;-88
2022/10/30 03:16:03;;;;;;;3.03;2.83;;;12.70;97.30;;;;;;5027672;28;20859;-86
2022/10/30 03:18:29;;;;;;;5.47;2.83;;;12.80;97.30;;;;;;5034057;28;20426;-88
2022/10/30 03:21:01;;;;;;;4.73;3.77;;;12.80;97.30;;;;;;5033759;28;20418;-89
2022/10/30 03:23:27;;;;;;;7.30;2.80;;;12.90;97.30;;;;;;5033752;28;20250;-88
2022/10/30 03:25:57;;;;;;;4.30;1.87;;;12.90;97.30;;;;;;5033924;28;20490;-88
2022/10/30 03:28:25;;;;;;;16.63;3.90;;;13.00;97.30;;;;;;5025222;28;20438;-88
2022/10/30 03:30:57;;;;;;;11.80;4.27;;;13.00;97.30;;;;;;5047611;28;20795;-88
2022/10/30 03:33:22;;;;;;;4.77;3.33;;;13.00;97.30;;;;;;5034091;28;20457;-88
2022/10/30 03:35:48;;;;;;;3.37;3.17;;;13.00;97.30;;;;;;5017218;28;20457;-88
2022/10/30 03:38:13;;;;;;;4.50;2.93;;;13.00;97.30;;;;;;5024576;28;20180;-88
2022/10/30 03:40:39;;;;;;;5.53;4.00;;;13.00;97.30;;;;;;5037542;28;20230;-88
2022/10/30 03:43:05;;;;;;;4.40;2.53;;;13.00;97.30;;;;;;5028800;28;20184;-88
2022/10/30 03:45:32;;;;;;;5.13;3.83;;;12.90;97.30;;;;;;5021792;28;20439;-89
2022/10/30 03:47:59;;;;;;;3.63;3.27;;;12.90;97.30;;;;;;5035142;28;20188;-88
2022/10/30 03:50:25;;;;;;;3.43;3.23;;;12.80;97.30;;;;;;5037160;28;20438;-88
2022/10/30 03:52:53;;;;;;;5.33;4.20;;;12.80;97.30;;;;;;5054805;28;20431;-88
2022/10/30 03:55:19;;;;;;;5.00;3.43;;;12.80;97.30;;;;;;5032821;28;20319;-89
2022/10/30 03:57:44;;;;;;;5.30;2.70;;;12.80;97.30;;;;;;5017790;28;20423;-88
2022/10/30 04:00:11;;;;;;;2.70;2.07;;;12.70;97.30;;;;;;5030555;28;20216;-89
2022/10/30 04:02:36;;;;;;;2.80;2.60;;;12.70;97.30;;;;;;5025557;28;20651;-89
2022/10/30 04:05:02;;;;;;;3.00;2.40;;;12.70;97.30;;;;;;5037210;28;20466;-89
2022/10/30 04:07:28;;;;;;;15.80;3.13;;;12.70;97.30;;;;;;5037224;28;20199;-89
2022/10/30 04:09:54;;;;;;;4.43;3.30;;;12.70;97.30;;;;;;5037656;28;20184;-89
2022/10/30 04:12:19;;;;;;;3.53;2.50;;;12.70;97.30;;;;;;5032017;28;21193;-88
2022/10/30 04:14:45;;;;;;;2.60;2.43;;;12.70;97.30;;;;;;5037705;28;20212;-89
2022/10/30 04:17:10;;;;;;;11.00;3.60;;;12.70;97.30;;;;;;5059606;28;20171;-90
2022/10/30 04:19:36;;;;;;;5.23;3.00;;;12.70;97.30;;;;;;5049506;28;20168;-89
2022/10/30 04:22:01;;;;;;;2.90;2.27;;;12.70;97.30;;;;;;5057362;28;20191;-89
2022/10/30 04:24:27;;;;;;;3.90;2.77;;;12.70;97.30;;;;;;5055247;28;20210;-88
2022/10/30 04:26:52;;;;;;;4.20;2.53;;;12.70;97.30;;;;;;5033181;28;20190;-88
2022/10/30 04:29:18;;;;;;;1.90;1.60;;;12.70;97.30;;;;;;5028564;28;20188;-88
2022/10/30 04:31:43;;;;;;;2.40;2.20;;;12.60;97.30;;;;;;5032897;28;20184;-88
2022/10/30 04:34:10;;;;;;;4.97;3.43;;;12.70;97.30;;;;;;5027024;28;20219;-88
2022/10/30 04:36:36;;;;;;;5.17;2.90;;;12.70;97.30;;;;;;5035899;28;20673;-88
2022/10/30 04:39:02;;;;;;;2.70;2.50;;;12.70;97.30;;;;;;5026498;28;20423;-88
2022/10/30 04:41:27;;;;;;;2.27;2.10;;;12.70;97.30;;;;;;5018119;28;20625;-89
2022/10/30 04:43:53;;;;;;;5.47;3.27;;;12.70;97.30;;;;;;5037768;28;20189;-89
2022/10/30 04:46:18;;;;;;;2.80;2.27;;;12.80;97.30;;;;;;5033742;28;20274;-88
2022/10/30 04:48:44;;;;;;;1.90;1.80;;;12.80;97.30;;;;;;5036946;28;20211;-88
2022/10/30 04:51:10;;;;;;;3.10;2.90;;;12.80;97.30;;;;;;5036157;28;20216;-88
2022/10/30 04:53:39;;;;;;;11.30;3.00;;;12.70;97.30;;;;;;5026989;28;20291;-88
2022/10/30 04:56:05;;;;;;;2.97;2.87;;;12.70;97.30;;;;;;5047864;28;20493;-88
2022/10/30 04:58:33;;;;;;;3.77;3.47;;;12.70;97.30;;;;;;5026623;28;20422;-88
2022/10/30 05:01:04;;;;;;;1.60;1.57;;;12.60;97.30;;;;;;5036384;28;20562;-88
2022/10/30 05:03:29;;;;;;;5.80;2.83;;;12.60;97.30;;;;;;5045053;28;20464;-88
2022/10/30 05:06:02;;;;;;;8.00;4.50;;;12.60;97.30;;;;;;5044714;28;20474;-91
2022/10/30 05:08:28;;;;;;;7.70;2.77;;;12.60;97.30;;;;;;5056942;28;20181;-89
2022/10/30 05:10:55;;;;;;;3.73;3.30;;;12.60;97.30;;;;;;5056477;28;20493;-88
2022/10/30 05:13:21;;;;;;;2.47;2.20;;;12.60;97.30;;;;;;5016910;28;20515;-87
2022/10/30 05:15:46;;;;;;;8.43;3.03;;;12.60;97.30;;;;;;5035398;28;20532;-88
2022/10/30 05:18:12;;;;;;;13.23;2.90;;;12.60;97.30;;;;;;5035831;28;20696;-88
2022/10/30 05:20:37;;;;;;;3.80;2.90;;;12.60;97.30;;;;;;5034926;28;20210;-88
2022/10/30 05:23:04;;;;;;;2.90;2.60;;;12.60;97.30;;;;;;5035643;28;20218;-88
2022/10/30 05:25:29;;;;;;;3.53;2.60;;;12.60;97.30;;;;;;5031394;28;20205;-88
2022/10/30 05:27:59;;;;;;;4.53;2.97;;;12.60;97.30;;;;;;5035649;28;20426;-88
2022/10/30 05:30:29;;;;;;;2.40;2.20;;;12.60;97.30;;;;;;5025462;28;20208;-86
2022/10/30 05:33:05;;;;;;;6.30;2.77;;;12.60;97.30;;;;;;5025197;28;20432;-88
2022/10/30 05:35:33;;;;;;;2.47;2.27;;;12.60;97.30;;;;;;5019300;28;20439;-88
2022/10/30 05:38:00;;;;;;;2.60;2.00;;;12.60;97.30;;;;;;5021322;28;20482;-88
2022/10/30 05:40:31;;;;;;;3.27;2.30;;;12.60;97.30;;;;;;5031216;28;21012;-88
2022/10/30 05:42:57;;;;;;;4.40;2.30;;;12.60;97.30;;;;;;5015894;28;20502;-88
2022/10/30 05:45:23;;;;;;;4.43;2.90;;;12.60;97.30;;;;;;5023802;28;20530;-88
2022/10/30 05:48:02;;;;;;;2.27;2.07;;;12.60;97.30;;;;;;5031474;28;20211;-88
2022/10/30 05:50:29;;;;;;;3.97;3.17;;;12.60;97.30;;;;;;5031481;28;20415;-88
2022/10/30 05:52:59;;;;;;;2.07;1.93;;;12.60;97.30;;;;;;5021925;28;20432;-87
2022/10/30 05:55:29;;;;;;;3.80;2.83;;;12.60;97.30;;;;;;5025926;28;20458;-89
2022/10/30 05:57:59;;;;;;;3.70;2.80;;;12.60;97.30;;;;;;5030830;28;21063;-87
2022/10/30 06:00:26;;;;;;;2.60;2.40;;;12.60;97.30;;;;;;5030816;28;20427;-87
2022/10/30 06:02:57;;;;;;;5.47;2.80;;;12.60;97.30;;;;;;5027272;28;20426;-87
2022/10/30 06:05:23;;;;;;;6.57;3.50;;;12.70;97.30;;;;;;5029178;28;20490;-89
2022/10/30 06:07:48;;;;;;;3.27;2.83;;;12.80;97.30;;;;;;5024928;28;20883;-87
2022/10/30 06:10:14;;;;;;;2.40;2.20;;;13.00;97.30;;;;;;5030954;28;20558;-88
2022/10/30 06:12:40;;;;;;;2.33;2.13;;;13.00;97.30;;;;;;5022966;28;20840;-88
2022/10/30 06:15:06;;;;;;;4.00;2.33;;;13.00;97.30;;;;;;5027949;28;20204;-88
2022/10/30 06:17:33;;;;;;;3.23;2.30;;;13.00;97.30;;;;;;5023658;28;20445;-87
2022/10/30 06:19:59;;;;;;;2.40;2.00;;;13.00;97.30;;;;;;5042457;28;20440;-88
2022/10/30 06:22:24;;;;;;;2.17;2.03;;;13.00;97.30;;;;;;5027133;28;20431;-84
2022/10/30 06:24:50;;;;;;;4.90;3.87;;;13.00;97.30;;;;;;5020276;28;20761;-89
2022/10/30 06:27:16;;;;;;;4.17;3.17;;;13.00;97.30;;;;;;5027271;28;20271;-87
2022/10/30 06:29:41;;;;;;;10.03;4.17;;;13.00;97.30;;;;;;5043670;28;20547;-88
2022/10/30 06:32:07;;;;;;;18.43;3.17;;;12.90;97.30;;;;;;5022545;28;20655;-88
2022/10/30 06:34:33;;;;;;;2.23;2.03;;;12.90;97.30;;;;;;5030327;28;20259;-88
2022/10/30 06:36:58;;;;;;;1.87;1.77;;;12.90;97.30;;;;;;5026990;28;20419;-88
2022/10/30 06:39:24;;;;;;;2.70;2.30;;;12.90;97.30;;;;;;5046999;28;20184;-89
2022/10/30 06:41:54;;;;;;;11.23;5.43;;;13.00;97.30;;;;;;5028870;28;20251;-87
2022/10/30 06:44:19;;;;;;;2.90;2.37;;;13.00;97.30;;;;;;5027956;28;20211;-88
2022/10/30 06:46:45;;;;;;;2.80;2.20;;;13.00;97.30;;;;;;5027555;28;20430;-89
2022/10/30 06:49:11;;;;;;;5.73;2.50;;;12.90;97.30;;;;;;5034274;28;20187;-88
2022/10/30 06:51:36;;;;;;;3.33;2.40;;;12.90;97.30;;;;;;5023992;28;20203;-88
2022/10/30 06:54:02;;;;;;;1.30;1.20;;;12.90;97.30;;;;;;5049807;28;20211;-88
2022/10/30 06:56:27;;;;;;;4.43;2.73;;;13.00;97.30;;;;;;5029666;28;20180;-87
2022/10/30 06:58:53;;;;;;;2.00;1.80;;;13.00;97.30;;;;;;5025172;28;20184;-87
2022/10/30 07:01:19;;;;;;;5.03;3.63;;;13.10;97.30;;;;;;5031971;28;20554;-87
2022/10/30 07:03:44;;;;;;;4.13;2.43;;;13.10;97.30;;;;;;5028811;28;20441;-86
2022/10/30 07:06:10;;;;;;;2.30;2.13;;;13.20;97.30;;;;;;5042728;22;20656;-83
2022/10/30 07:08:35;;;;;;;1.90;1.77;;;13.30;97.30;;;;;;5007387;28;20781;-83
2022/10/30 07:11:01;;;;;;;3.80;3.10;;;13.40;97.30;;;;;;4984766;28;20189;-83
2022/10/30 07:13:26;;;;;;;3.90;2.30;;;13.60;97.30;;;;;;4991359;28;20189;-84
2022/10/30 07:15:54;;;;;;;4.03;3.23;;;13.60;97.30;;;;;;4983501;28;20268;-84
2022/10/30 07:18:20;;;;;;;2.97;2.77;;;13.80;97.30;;;;;;4991073;28;20184;-80
2022/10/30 07:20:45;;;;;;;4.77;2.43;;;13.90;97.30;;;;;;4994672;28;20421;-83
2022/10/30 07:23:11;;;;;;;2.43;2.23;;;14.00;97.30;;;;;;4992338;28;20182;-85
2022/10/30 07:25:36;;;;;;;3.40;2.70;;;14.00;97.30;;;;;;4991269;28;20222;-84
2022/10/30 07:28:02;;;;;;;6.73;1.80;;;14.00;97.30;;;;;;4996090;28;20285;-82
2022/10/30 07:30:28;;;;;;;3.30;2.90;;;14.10;97.30;;;;;;4980767;28;20181;-83
2022/10/30 07:33:04;;;;;;;3.23;1.87;;;14.20;97.30;;;;;;4979677;28;20182;-83
2022/10/30 07:35:31;;;;;;;11.30;3.23;;;14.30;97.30;;;;;;4976807;28;20220;-83
2022/10/30 07:38:04;;;;;;;17.33;2.83;;;14.40;97.30;;;;;;4984934;28;20927;-83
2022/10/30 07:40:30;;;;;;;2.40;2.20;;;14.50;97.30;;;;;;4980618;28;20431;-83
2022/10/30 07:42:56;;;;;;;3.13;2.93;;;14.60;97.30;;;;;;4977899;28;20416;-84
2022/10/30 07:45:22;;;;;;;3.70;2.30;;;14.70;97.30;;;;;;4976501;28;20202;-84
2022/10/30 07:47:48;;;;;;;2.57;2.37;;;14.80;97.30;;;;;;4994707;28;20527;-83
2022/10/30 07:50:13;;;;;;;3.10;1.90;;;14.80;97.30;;;;;;4973970;28;20201;-83
2022/10/30 07:52:39;;;;;;;5.10;2.47;;;14.90;97.30;;;;;;4975163;28;20687;-83
2022/10/30 07:55:05;;;;;;;4.67;2.40;;;15.00;97.30;;;;;;4973075;28;20308;-83
2022/10/30 07:57:38;;;;;;;5.33;2.70;;;15.20;97.30;;;;;;4973242;28;20261;-83
2022/10/30 08:00:09;;;;;;;18.23;3.00;;;15.30;97.30;;;;;;4994680;28;20439;-83
2022/10/30 08:02:35;;;;;;;5.20;2.73;;;15.50;97.30;;;;;;4972563;28;20456;-82
2022/10/30 08:05:01;;;;;;;5.83;3.47;;;15.70;97.30;;;;;;4977406;28;20528;-85
2022/10/30 08:07:34;;;;;;;7.47;3.63;;;15.90;97.30;;;;;;4976780;28;20436;-84
2022/10/30 08:10:00;;;;;;;7.33;3.33;;;16.00;97.30;;;;;;4972527;28;20429;-84
2022/10/30 08:12:26;;;;;;;4.60;3.57;;;16.20;97.30;;;;;;4975554;28;20424;-83
2022/10/30 08:14:52;;;;;;;4.93;3.43;;;16.40;97.30;;;;;;4969200;28;20241;-83
2022/10/30 08:17:18;;;;;;;2.70;2.50;;;16.50;97.30;;;;;;4964456;28;20516;-83
2022/10/30 08:19:43;;;;;;;5.70;2.57;;;16.70;97.30;;;;;;4980398;28;20186;-82
2022/10/30 08:22:10;;;;;;;2.60;2.40;;;16.80;97.30;;;;;;4971776;28;20422;-86
2022/10/30 08:24:38;;;;;;;13.00;2.60;;;16.80;97.30;;;;;;4975739;28;20268;-83
2022/10/30 08:27:05;;;;;;;9.73;4.50;;;16.90;97.30;;;;;;4985551;28;20874;-84
2022/10/30 08:29:30;;;;;;;3.90;3.00;;;16.90;97.30;;;;;;5010975;28;20783;-85
2022/10/30 08:31:56;;;;;;;3.50;2.80;;;16.90;97.30;;;;;;4977973;28;20428;-83
2022/10/30 08:34:22;;;;;;;7.10;2.53;;;16.90;97.30;;;;;;4975630;28;20748;-81
2022/10/30 08:36:50;;;;;;;6.80;2.80;;;16.90;97.30;;;;;;4979098;28;20182;-85
2022/10/30 08:39:17;;;;;;;3.20;1.93;;;17.00;97.30;;;;;;4974091;28;21090;-83
2022/10/30 08:41:42;;;;;;;1.73;1.60;;;17.10;97.30;;;;;;4985590;28;20449;-84
2022/10/30 08:44:08;;;;;;;5.10;1.97;;;17.20;97.30;;;;;;4969793;28;20797;-84
2022/10/30 08:46:34;;;;;;;2.63;2.33;;;17.20;97.30;;;;;;4977246;28;20241;-85
2022/10/30 08:49:00;;;;;;;4.67;2.73;;;17.30;97.30;;;;;;5001047;28;20194;-83
2022/10/30 08:51:25;;;;;;;2.50;2.30;;;17.40;97.30;;;;;;4977644;28;20213;-82
2022/10/30 08:53:51;;;;;;;9.40;3.93;;;17.50;97.30;;;;;;4975856;28;20464;-82
2022/10/30 08:56:17;;;;;;;2.13;2.00;;;17.60;97.30;;;;;;4963759;28;20206;-83
2022/10/30 08:58:42;;;;;;;4.50;2.10;;;17.70;97.30;;;;;;4976232;28;20273;-82
2022/10/30 09:01:08;;;;;;;5.40;2.73;;;17.80;97.30;;;;;;4976508;28;20645;-85
2022/10/30 09:03:34;;;;;;;4.90;2.20;;;18.00;97.30;;;;;;4975497;28;20205;-83
2022/10/30 09:06:00;;;;;;;1.37;1.30;;;18.10;97.30;;;;;;4963508;28;20531;-82
2022/10/30 09:08:26;;;;;;;1.87;1.87;;;18.20;97.30;;;;;;4969925;28;20281;-84
2022/10/30 09:10:57;;;;;;;3.23;1.63;;;18.30;97.30;;;;;;4957014;28;20536;-83
2022/10/30 09:13:23;;;;;;;3.37;2.30;;;18.40;97.30;;;;;;4979495;28;20433;-83
2022/10/30 09:15:49;;;;;;;7.20;3.00;;;18.50;97.30;;;;;;4973573;28;20999;-83
2022/10/30 09:18:14;;;;;;;3.27;3.07;;;18.60;97.30;;;;;;4988066;28;20421;-84
2022/10/30 09:20:40;;;;;;;2.37;2.17;;;18.70;97.30;;;;;;4972044;28;20182;-85
2022/10/30 09:23:06;;;;;;;3.10;2.10;;;18.80;97.30;;;;;;4976910;28;20273;-84
2022/10/30 09:25:31;;;;;;;2.70;2.50;;;18.90;97.30;;;;;;4975588;28;20206;-85
2022/10/30 09:27:57;;;;;;;4.90;2.37;;;19.00;97.30;;;;;;4976127;28;20185;-83
2022/10/30 09:30:23;;;;;;;2.60;2.00;;;19.20;97.30;;;;;;4993105;28;20193;-83
2022/10/30 09:33:00;;;;;;;2.70;2.33;;;19.30;97.30;;;;;;4975593;28;20186;-84
2022/10/30 09:35:26;;;;;;;5.73;3.13;;;19.40;97.30;;;;;;4964279;28;20465;-82
2022/10/30 09:37:52;;;;;;;3.63;2.77;;;19.60;97.30;;;;;;4974356;28;20805;-84
2022/10/30 09:40:33;;;;;;;4.50;2.13;;;19.70;97.30;;;;;;4980833;28;20429;-82
2022/10/30 09:43:24;;;;;;;4.17;2.63;;;19.80;97.30;;;;;;5006899;28;20173;-85
2022/10/30 09:46:05;;;;;;;2.50;2.30;;;19.90;97.30;;;;;;4948158;28;20456;-85
2022/10/30 09:49:01;;;;;;;4.40;2.30;;;20.00;97.30;;;;;;4988594;28;20435;-84
2022/10/30 09:51:55;;;;;;;2.90;2.00;;;20.20;97.00;;;;;;4988312;28;20416;-84
2022/10/30 09:54:37;;;;;;;3.53;2.70;;;20.30;96.80;;;;;;4989244;28;20632;-84
2022/10/30 09:57:34;;;;;;;19.07;2.00;;;20.50;96.60;;;;;;5002171;28;20448;-82
2022/10/30 10:00:12;;;;;;;1.97;1.90;;;20.60;96.00;;;;;;4988192;28;20405;-86
2022/10/30 10:02:57;;;;;;;4.33;2.57;;;20.70;95.90;;;;;;4988124;28;20959;-85
2022/10/30 10:05:43;;;;;;;2.53;1.90;;;20.80;96.20;;;;;;4972037;28;20460;-84
2022/10/30 10:08:18;;;;;;;5.63;2.27;;;20.90;95.70;;;;;;4969710;28;20421;-85
2022/10/30 10:10:51;;;;;;;2.13;1.97;;;21.00;94.90;;;;;;4974995;28;20428;-84
2022/10/30 10:13:38;;;;;;;7.23;3.40;;;21.10;95.30;;;;;;4978186;28;20408;-85
2022/10/30 10:16:43;;;;;;;5.93;2.50;;;21.20;94.10;;;;;;4975283;28;20472;-85
2022/10/30 10:19:32;;;;;;;4.80;2.57;;;21.40;94.10;;;;;;4912663;29;20428;-85
2022/10/30 10:22:04;;;;;;;1.77;1.67;;;21.50;94.10;;;;;;4894921;29;20421;-85
2022/10/30 10:24:33;;;;;;;1.83;1.80;;;21.60;93.80;;;;;;4952221;28;20436;-84
2022/10/30 10:27:09;;;;;;;5.00;2.47;;;21.70;93.70;;;;;;4966920;28;20561;-85
2022/10/30 10:29:59;;;;;;;5.53;2.40;;;21.90;93.70;;;;;;4967662;28;21018;-84
2022/10/30 10:32:56;;;;;;;6.30;3.60;;;22.00;93.20;;;;;;4974400;28;20853;-85
2022/10/30 10:35:57;;;;;;;5.40;1.97;;;22.20;92.20;;;;;;4991306;28;20865;-85
2022/10/30 10:38:52;;;;;;;2.57;2.37;;;22.30;91.40;;;;;;4975671;28;20408;-84
2022/10/30 10:41:50;;;;;;;2.90;1.57;;;22.40;91.10;;;;;;4974895;28;20456;-85
2022/10/30 10:44:21;;;;;;;8.47;2.67;;;22.50;91.20;;;;;;4979450;28;20862;-84
2022/10/30 10:46:56;;;;;;;5.23;2.30;;;22.60;91.10;;;;;;4973584;28;20428;-85
2022/10/30 10:49:29;;;;;;;10.13;2.33;;;22.70;90.80;;;;;;4974575;28;20519;-84
2022/10/30 10:51:59;;;;;;;14.40;4.70;;;22.80;90.90;;;;;;4955993;28;20422;-84
2022/10/30 10:54:40;;;;;;;4.00;3.23;;;22.90;90.50;;;;;;4974297;28;20975;-84
2022/10/30 10:57:07;;;;;;;5.47;3.63;;;23.00;90.40;;;;;;4991197;28;20491;-84
2022/10/30 10:59:43;;;;;;;1.87;1.77;;;23.10;88.00;;;;;;4974383;28;20432;-84
2022/10/30 11:02:15;;;;;;;5.43;2.00;;;23.20;89.50;;;;;;4991460;28;20448;-84
2022/10/30 11:04:44;;;;;;;3.17;2.30;;;23.20;87.30;;;;;;4973281;28;20444;-84
2022/10/30 11:07:22;;;;;;;1.67;1.60;;;23.30;88.90;;;;;;4979870;28;20483;-85
2022/10/30 11:09:53;;;;;;;2.40;2.20;;;23.40;88.80;;;;;;5009745;28;20883;-85
2022/10/30 11:12:25;;;;;;;3.17;2.50;;;23.50;88.10;;;;;;4992040;28;20456;-84
2022/10/30 11:14:51;;;;;;;1.73;1.63;;;23.50;88.50;;;;;;4974613;28;20483;-84
2022/10/30 11:17:31;;;;;;;3.60;1.97;;;23.50;88.80;;;;;;4991318;28;20417;-84
2022/10/30 11:20:04;;;;;;;2.47;2.27;;;23.40;88.90;;;;;;4992181;28;20657;-84
2022/10/30 11:22:35;;;;;;;1.77;1.73;;;23.30;89.30;;;;;;4974635;28;20429;-84
2022/10/30 11:25:24;;;;;;;1.53;1.20;;;23.30;88.40;;;;;;4996804;28;20450;-84
2022/10/30 11:28:02;;;;;;;1.40;1.30;;;23.40;88.40;;;;;;4977201;28;20524;-84
2022/10/30 11:30:28;;;;;;;4.73;2.07;;;23.60;87.80;;;;;;4973840;28;20773;-84
2022/10/30 11:32:55;;;;;;;1.77;1.67;;;23.80;87.30;;;;;;4973253;28;20460;-85
2022/10/30 11:35:21;;;;;;;7.13;2.47;;;23.90;87.10;;;;;;4973587;28;20670;-84
2022/10/30 11:38:09;;;;;;;4.73;2.27;;;24.00;86.80;;;;;;4973298;28;20935;-84
2022/10/30 11:40:35;;;;;;;7.87;2.27;;;24.10;86.00;;;;;;4986378;28;20203;-84
2022/10/30 11:43:03;;;;;;;2.03;1.50;;;24.20;85.20;;;;;;4992744;28;20451;-84
2022/10/30 11:45:31;;;;;;;5.83;2.90;;;24.20;84.40;;;;;;5009684;28;20220;-84
2022/10/30 11:47:58;;;;;;;4.70;3.53;;;24.20;83.80;;;;;;4968138;28;20432;-85
2022/10/30 11:50:29;;;;;;;2.60;2.13;;;24.20;84.80;;;;;;4979165;28;20424;-84
2022/10/30 11:52:59;;;;;;;13.03;3.63;;;24.40;84.10;;;;;;4991222;28;20435;-85
2022/10/30 11:55:43;;;;;;;3.33;2.53;;;24.50;83.80;;;;;;4973686;28;20693;-85
2022/10/30 11:58:22;;;;;;;1.93;1.83;;;24.70;83.20;;;;;;4974117;28;20531;-85
2022/10/30 12:00:59;;;;;;;4.07;2.63;;;24.80;82.10;;;;;;4994658;28;20420;-84
2022/10/30 12:03:43;;;;;;;4.93;2.27;;;24.90;82.30;;;;;;4983168;28;20468;-84
2022/10/30 12:06:21;;;;;;;11.40;3.37;;;24.90;81.90;;;;;;5014624;28;20460;-84
2022/10/30 12:09:00;;;;;;;3.23;1.97;;;25.10;81.80;;;;;;4979246;28;20805;-85
2022/10/30 12:11:33;;;;;;;3.20;2.20;;;25.20;81.00;;;;;;5008133;28;20734;-84
2022/10/30 12:13:59;;;;;;;6.70;2.30;;;25.30;80.90;;;;;;4983438;28;20510;-85
2022/10/30 12:16:26;;;;;;;1.73;1.50;;;25.30;80.80;;;;;;4982106;28;20445;-86
2022/10/30 12:19:14;;;;;;;2.70;2.40;;;25.50;81.10;;;;;;4977745;28;20417;-85
2022/10/30 12:21:47;;;;;;;3.83;2.73;;;25.60;81.80;;;;;;4978512;28;20464;-86
2022/10/30 12:24:34;;;;;;;1.97;1.60;;;25.70;81.10;;;;;;4986087;28;20429;-85
2022/10/30 12:27:03;;;;;;;7.73;2.57;;;25.80;80.10;;;;;;4976655;28;20928;-84
2022/10/30 12:29:57;;;;;;;10.60;3.50;;;25.90;80.10;;;;;;4976537;28;20424;-84
2022/10/30 12:32:27;;;;;;;4.87;3.10;;;26.00;80.20;;;;;;4988364;28;20458;-84
2022/10/30 12:35:18;;;;;;;1.83;1.73;;;26.10;79.10;;;;;;4989529;28;20499;-85
2022/10/30 12:37:45;;;;;;;3.60;2.23;;;26.10;79.60;;;;;;4982515;28;20501;-85
2022/10/30 12:40:23;;;;;;;1.73;1.53;;;26.20;79.60;;;;;;4985367;28;20424;-85
2022/10/30 12:42:57;;;;;;;11.37;2.97;;;26.20;79.40;;;;;;4999635;28;20416;-85
2022/10/30 12:45:42;;;;;;;3.57;2.00;;;26.30;78.50;;;;;;4983603;28;20992;-85
2022/10/30 12:48:31;;;;;;;12.50;2.60;;;26.30;79.20;;;;;;4974030;28;20447;-85
2022/10/30 12:51:34;;;;;;;7.20;2.57;;;26.30;78.70;;;;;;4995148;28;20506;-85
2022/10/30 12:54:14;;;;;;;2.07;1.93;;;26.50;79.50;;;;;;4976872;28;20467;-84
2022/10/30 12:56:44;;;;;;;5.97;2.80;;;26.60;79.60;;;;;;4975492;28;20760;-84
2022/10/30 12:59:47;;;;;;;1.63;1.60;;;26.70;79.30;;;;;;4975893;28;20476;-84
2022/10/30 13:02:31;;;;;;;2.37;2.20;;;26.60;78.20;;;;;;4974936;28;20428;-85